sensor_id;sensor_type;location;lat;lon;timestamp;P1;durP1;ratioP1;P2;durP2;ratioP2
51840;SDS011;37888;53.246;6.658;2023-07-13T00:01:47;2.78;;;1.10;;
51840;SDS011;37888;53.246;6.658;2023-07-13T00:04:18;4.10;;;1.45;;
51840;SDS011;37888;53.246;6.658;2023-07-13T00:06:46;4.55;;;1.50;;
51840;SDS011;37888;53.246;6.658;2023-07-13T00:09:13;2.33;;;1.05;;
51840;SDS011;37888;53.246;6.658;2023-07-13T00:14:07;4.45;;;1.27;;
51840;SDS011;37888;53.246;6.658;2023-07-13T00:16:35;4.45;;;1.15;;
51840;SDS011;37888;53.246;6.658;2023-07-13T00:19:02;5.30;;;1.20;;
51840;SDS011;37888;53.246;6.658;2023-07-13T00:21:28;3.30;;;1.07;;
51840;SDS011;37888;53.246;6.658;2023-07-13T00:23:54;5.80;;;1.77;;
51840;SDS011;37888;53.246;6.658;2023-07-13T00:26:20;3.35;;;1.20;;
51840;SDS011;37888;53.246;6.658;2023-07-13T00:28:46;3.72;;;1.00;;
51840;SDS011;37888;53.246;6.658;2023-07-13T00:31:12;5.95;;;1.48;;
51840;SDS011;37888;53.246;6.658;2023-07-13T00:33:39;5.78;;;1.38;;
51840;SDS011;37888;53.246;6.658;2023-07-13T00:36:05;3.85;;;1.20;;
51840;SDS011;37888;53.246;6.658;2023-07-13T00:38:35;5.95;;;1.15;;
51840;SDS011;37888;53.246;6.658;2023-07-13T00:41:01;4.72;;;1.40;;
51840;SDS011;37888;53.246;6.658;2023-07-13T00:43:28;4.18;;;1.55;;
51840;SDS011;37888;53.246;6.658;2023-07-13T00:48:25;3.15;;;1.08;;
51840;SDS011;37888;53.246;6.658;2023-07-13T00:50:55;5.25;;;1.55;;
51840;SDS011;37888;53.246;6.658;2023-07-13T00:53:24;3.75;;;1.27;;
51840;SDS011;37888;53.246;6.658;2023-07-13T00:55:51;5.70;;;1.20;;
51840;SDS011;37888;53.246;6.658;2023-07-13T00:58:20;5.72;;;1.48;;
51840;SDS011;37888;53.246;6.658;2023-07-13T01:00:46;5.60;;;1.75;;
51840;SDS011;37888;53.246;6.658;2023-07-13T01:05:39;5.30;;;1.60;;
51840;SDS011;37888;53.246;6.658;2023-07-13T01:08:05;5.30;;;1.48;;
51840;SDS011;37888;53.246;6.658;2023-07-13T01:10:31;3.47;;;1.35;;
51840;SDS011;37888;53.246;6.658;2023-07-13T01:13:07;3.88;;;1.33;;
51840;SDS011;37888;53.246;6.658;2023-07-13T01:15:41;3.42;;;1.42;;
51840;SDS011;37888;53.246;6.658;2023-07-13T01:18:15;4.82;;;1.83;;
51840;SDS011;37888;53.246;6.658;2023-07-13T01:20:50;4.78;;;1.42;;
51840;SDS011;37888;53.246;6.658;2023-07-13T01:23:16;4.03;;;1.60;;
51840;SDS011;37888;53.246;6.658;2023-07-13T01:25:42;3.72;;;1.35;;
51840;SDS011;37888;53.246;6.658;2023-07-13T01:28:08;2.42;;;0.93;;
51840;SDS011;37888;53.246;6.658;2023-07-13T01:30:38;7.22;;;1.48;;
51840;SDS011;37888;53.246;6.658;2023-07-13T01:33:08;5.13;;;1.92;;
51840;SDS011;37888;53.246;6.658;2023-07-13T01:35:35;6.13;;;1.58;;
51840;SDS011;37888;53.246;6.658;2023-07-13T01:38:01;5.13;;;1.57;;
51840;SDS011;37888;53.246;6.658;2023-07-13T01:40:30;3.47;;;1.50;;
51840;SDS011;37888;53.246;6.658;2023-07-13T01:42:57;5.15;;;1.48;;
51840;SDS011;37888;53.246;6.658;2023-07-13T01:45:23;5.72;;;1.38;;
51840;SDS011;37888;53.246;6.658;2023-07-13T01:47:49;2.85;;;1.15;;
51840;SDS011;37888;53.246;6.658;2023-07-13T01:50:15;4.82;;;1.48;;
51840;SDS011;37888;53.246;6.658;2023-07-13T01:52:41;5.65;;;1.40;;
51840;SDS011;37888;53.246;6.658;2023-07-13T01:55:07;4.32;;;1.50;;
51840;SDS011;37888;53.246;6.658;2023-07-13T01:57:33;6.65;;;1.40;;
51840;SDS011;37888;53.246;6.658;2023-07-13T01:59:59;3.58;;;1.48;;
51840;SDS011;37888;53.246;6.658;2023-07-13T02:02:24;2.63;;;1.25;;
51840;SDS011;37888;53.246;6.658;2023-07-13T02:04:50;3.80;;;1.40;;
51840;SDS011;37888;53.246;6.658;2023-07-13T02:07:16;4.80;;;1.50;;
51840;SDS011;37888;53.246;6.658;2023-07-13T02:09:42;4.63;;;1.17;;
51840;SDS011;37888;53.246;6.658;2023-07-13T02:12:08;5.95;;;1.20;;
51840;SDS011;37888;53.246;6.658;2023-07-13T02:14:34;4.50;;;1.38;;
51840;SDS011;37888;53.246;6.658;2023-07-13T02:16:59;6.30;;;1.98;;
51840;SDS011;37888;53.246;6.658;2023-07-13T02:19:25;3.75;;;1.42;;
51840;SDS011;37888;53.246;6.658;2023-07-13T02:21:51;5.15;;;1.70;;
51840;SDS011;37888;53.246;6.658;2023-07-13T02:24:17;5.00;;;1.10;;
51840;SDS011;37888;53.246;6.658;2023-07-13T02:26:44;5.95;;;1.48;;
51840;SDS011;37888;53.246;6.658;2023-07-13T02:29:10;4.35;;;1.27;;
51840;SDS011;37888;53.246;6.658;2023-07-13T02:31:36;4.63;;;1.15;;
51840;SDS011;37888;53.246;6.658;2023-07-13T02:34:02;3.35;;;1.20;;
51840;SDS011;37888;53.246;6.658;2023-07-13T02:36:29;4.38;;;1.10;;
51840;SDS011;37888;53.246;6.658;2023-07-13T02:38:55;4.63;;;1.42;;
51840;SDS011;37888;53.246;6.658;2023-07-13T02:41:21;3.65;;;1.20;;
51840;SDS011;37888;53.246;6.658;2023-07-13T02:43:48;4.90;;;1.50;;
51840;SDS011;37888;53.246;6.658;2023-07-13T02:46:14;3.72;;;1.10;;
51840;SDS011;37888;53.246;6.658;2023-07-13T02:48:40;6.75;;;1.10;;
51840;SDS011;37888;53.246;6.658;2023-07-13T02:51:06;4.00;;;1.45;;
51840;SDS011;37888;53.246;6.658;2023-07-13T02:53:32;4.63;;;1.27;;
51840;SDS011;37888;53.246;6.658;2023-07-13T02:55:58;6.55;;;1.73;;
51840;SDS011;37888;53.246;6.658;2023-07-13T02:58:24;5.15;;;1.67;;
51840;SDS011;37888;53.246;6.658;2023-07-13T03:00:51;6.68;;;1.65;;
51840;SDS011;37888;53.246;6.658;2023-07-13T03:03:17;5.75;;;1.95;;
51840;SDS011;37888;53.246;6.658;2023-07-13T03:05:43;3.53;;;1.35;;
51840;SDS011;37888;53.246;6.658;2023-07-13T03:10:37;4.85;;;1.80;;
51840;SDS011;37888;53.246;6.658;2023-07-13T03:13:05;4.75;;;1.63;;
51840;SDS011;37888;53.246;6.658;2023-07-13T03:15:31;6.65;;;1.90;;
51840;SDS011;37888;53.246;6.658;2023-07-13T03:17:56;5.63;;;1.90;;
51840;SDS011;37888;53.246;6.658;2023-07-13T03:20:22;5.35;;;1.63;;
51840;SDS011;37888;53.246;6.658;2023-07-13T03:22:48;7.45;;;2.80;;
51840;SDS011;37888;53.246;6.658;2023-07-13T03:25:14;6.03;;;2.10;;
51840;SDS011;37888;53.246;6.658;2023-07-13T03:27:39;6.53;;;2.22;;
51840;SDS011;37888;53.246;6.658;2023-07-13T03:30:05;8.05;;;2.10;;
51840;SDS011;37888;53.246;6.658;2023-07-13T03:32:32;8.63;;;2.15;;
51840;SDS011;37888;53.246;6.658;2023-07-13T03:34:58;4.60;;;1.60;;
51840;SDS011;37888;53.246;6.658;2023-07-13T03:37:24;5.63;;;1.75;;
51840;SDS011;37888;53.246;6.658;2023-07-13T03:39:50;6.50;;;1.98;;
51840;SDS011;37888;53.246;6.658;2023-07-13T03:42:16;7.38;;;2.03;;
51840;SDS011;37888;53.246;6.658;2023-07-13T03:44:42;7.93;;;1.90;;
51840;SDS011;37888;53.246;6.658;2023-07-13T03:47:11;5.95;;;2.03;;
51840;SDS011;37888;53.246;6.658;2023-07-13T03:49:37;6.05;;;1.98;;
51840;SDS011;37888;53.246;6.658;2023-07-13T03:52:03;4.75;;;2.35;;
51840;SDS011;37888;53.246;6.658;2023-07-13T03:54:29;6.65;;;1.50;;
51840;SDS011;37888;53.246;6.658;2023-07-13T03:56:55;8.75;;;2.08;;
51840;SDS011;37888;53.246;6.658;2023-07-13T03:59:20;6.35;;;1.88;;
51840;SDS011;37888;53.246;6.658;2023-07-13T04:01:46;7.90;;;2.03;;
51840;SDS011;37888;53.246;6.658;2023-07-13T04:04:12;5.45;;;1.73;;
51840;SDS011;37888;53.246;6.658;2023-07-13T04:06:38;5.80;;;1.83;;
51840;SDS011;37888;53.246;6.658;2023-07-13T04:09:04;6.50;;;1.95;;
51840;SDS011;37888;53.246;6.658;2023-07-13T04:11:31;5.47;;;1.80;;
51840;SDS011;37888;53.246;6.658;2023-07-13T04:16:23;7.50;;;2.00;;
51840;SDS011;37888;53.246;6.658;2023-07-13T04:18:52;4.15;;;1.90;;
51840;SDS011;37888;53.246;6.658;2023-07-13T04:21:20;6.53;;;2.05;;
51840;SDS011;37888;53.246;6.658;2023-07-13T04:23:46;6.27;;;1.80;;
51840;SDS011;37888;53.246;6.658;2023-07-13T04:26:12;7.90;;;2.42;;
51840;SDS011;37888;53.246;6.658;2023-07-13T04:28:38;4.57;;;2.00;;
51840;SDS011;37888;53.246;6.658;2023-07-13T04:31:04;4.88;;;1.77;;
51840;SDS011;37888;53.246;6.658;2023-07-13T04:33:29;7.25;;;2.63;;
51840;SDS011;37888;53.246;6.658;2023-07-13T04:35:59;6.70;;;2.33;;
51840;SDS011;37888;53.246;6.658;2023-07-13T04:38:27;3.63;;;1.42;;
51840;SDS011;37888;53.246;6.658;2023-07-13T04:40:58;7.38;;;2.00;;
51840;SDS011;37888;53.246;6.658;2023-07-13T04:43:26;5.22;;;1.75;;
51840;SDS011;37888;53.246;6.658;2023-07-13T04:45:52;5.45;;;2.38;;
51840;SDS011;37888;53.246;6.658;2023-07-13T04:48:19;5.85;;;1.98;;
51840;SDS011;37888;53.246;6.658;2023-07-13T04:50:45;5.70;;;1.60;;
51840;SDS011;37888;53.246;6.658;2023-07-13T04:53:12;6.85;;;1.90;;
51840;SDS011;37888;53.246;6.658;2023-07-13T04:55:38;7.32;;;2.20;;
51840;SDS011;37888;53.246;6.658;2023-07-13T04:58:03;4.60;;;1.92;;
51840;SDS011;37888;53.246;6.658;2023-07-13T05:00:30;6.70;;;2.25;;
51840;SDS011;37888;53.246;6.658;2023-07-13T05:02:56;5.63;;;1.60;;
51840;SDS011;37888;53.246;6.658;2023-07-13T05:05:24;6.88;;;2.17;;
51840;SDS011;37888;53.246;6.658;2023-07-13T05:07:51;5.57;;;1.60;;
51840;SDS011;37888;53.246;6.658;2023-07-13T05:10:17;7.68;;;1.70;;
51840;SDS011;37888;53.246;6.658;2023-07-13T05:12:43;4.95;;;2.00;;
51840;SDS011;37888;53.246;6.658;2023-07-13T05:15:09;5.93;;;1.63;;
51840;SDS011;37888;53.246;6.658;2023-07-13T05:17:35;5.22;;;1.80;;
51840;SDS011;37888;53.246;6.658;2023-07-13T05:20:01;3.25;;;1.48;;
51840;SDS011;37888;53.246;6.658;2023-07-13T05:22:27;5.45;;;1.58;;
51840;SDS011;37888;53.246;6.658;2023-07-13T05:24:53;5.05;;;1.80;;
51840;SDS011;37888;53.246;6.658;2023-07-13T05:27:19;4.15;;;1.67;;
51840;SDS011;37888;53.246;6.658;2023-07-13T05:29:44;4.93;;;1.58;;
51840;SDS011;37888;53.246;6.658;2023-07-13T05:32:10;5.85;;;1.80;;
51840;SDS011;37888;53.246;6.658;2023-07-13T05:34:36;6.72;;;1.90;;
51840;SDS011;37888;53.246;6.658;2023-07-13T05:37:05;6.90;;;1.83;;
51840;SDS011;37888;53.246;6.658;2023-07-13T05:39:30;7.53;;;1.60;;
51840;SDS011;37888;53.246;6.658;2023-07-13T05:41:56;5.50;;;1.30;;
51840;SDS011;37888;53.246;6.658;2023-07-13T05:44:22;3.38;;;1.30;;
51840;SDS011;37888;53.246;6.658;2023-07-13T05:46:48;6.43;;;1.50;;
51840;SDS011;37888;53.246;6.658;2023-07-13T05:49:14;3.92;;;1.63;;
51840;SDS011;37888;53.246;6.658;2023-07-13T05:51:39;4.32;;;1.58;;
51840;SDS011;37888;53.246;6.658;2023-07-13T05:54:05;5.10;;;1.60;;
51840;SDS011;37888;53.246;6.658;2023-07-13T05:56:30;5.30;;;1.25;;
51840;SDS011;37888;53.246;6.658;2023-07-13T05:58:56;4.20;;;1.30;;
51840;SDS011;37888;53.246;6.658;2023-07-13T06:01:22;4.97;;;1.48;;
51840;SDS011;37888;53.246;6.658;2023-07-13T06:03:48;5.85;;;1.45;;
51840;SDS011;37888;53.246;6.658;2023-07-13T06:06:14;5.23;;;1.10;;
51840;SDS011;37888;53.246;6.658;2023-07-13T06:08:41;3.50;;;1.33;;
51840;SDS011;37888;53.246;6.658;2023-07-13T06:11:12;4.50;;;1.47;;
51840;SDS011;37888;53.246;6.658;2023-07-13T06:13:40;4.93;;;1.13;;
51840;SDS011;37888;53.246;6.658;2023-07-13T06:16:06;3.77;;;0.93;;
51840;SDS011;37888;53.246;6.658;2023-07-13T06:18:32;3.67;;;1.30;;
51840;SDS011;37888;53.246;6.658;2023-07-13T06:20:59;3.50;;;1.25;;
51840;SDS011;37888;53.246;6.658;2023-07-13T06:23:24;3.73;;;1.03;;
51840;SDS011;37888;53.246;6.658;2023-07-13T06:25:51;3.83;;;1.27;;
51840;SDS011;37888;53.246;6.658;2023-07-13T06:28:16;3.65;;;1.00;;
51840;SDS011;37888;53.246;6.658;2023-07-13T06:30:42;3.53;;;1.33;;
51840;SDS011;37888;53.246;6.658;2023-07-13T06:33:08;4.07;;;1.23;;
51840;SDS011;37888;53.246;6.658;2023-07-13T06:35:34;3.03;;;1.17;;
51840;SDS011;37888;53.246;6.658;2023-07-13T06:38:17;4.57;;;1.17;;
51840;SDS011;37888;53.246;6.658;2023-07-13T06:40:52;2.60;;;1.15;;
51840;SDS011;37888;53.246;6.658;2023-07-13T06:43:18;4.28;;;1.10;;
51840;SDS011;37888;53.246;6.658;2023-07-13T06:45:46;3.75;;;1.00;;
51840;SDS011;37888;53.246;6.658;2023-07-13T06:48:15;3.95;;;1.05;;
51840;SDS011;37888;53.246;6.658;2023-07-13T06:53:42;3.75;;;0.90;;
51840;SDS011;37888;53.246;6.658;2023-07-13T06:56:47;1.67;;;0.90;;
51840;SDS011;37888;53.246;6.658;2023-07-13T06:59:13;3.17;;;0.98;;
51840;SDS011;37888;53.246;6.658;2023-07-13T07:01:39;2.33;;;0.73;;
51840;SDS011;37888;53.246;6.658;2023-07-13T07:04:05;3.65;;;1.00;;
51840;SDS011;37888;53.246;6.658;2023-07-13T07:06:30;2.40;;;0.60;;
51840;SDS011;37888;53.246;6.658;2023-07-13T07:15:25;2.33;;;0.70;;
51840;SDS011;37888;53.246;6.658;2023-07-13T07:18:54;3.10;;;0.82;;
51840;SDS011;37888;53.246;6.658;2023-07-13T07:21:16;2.00;;;0.70;;
51840;SDS011;37888;53.246;6.658;2023-07-13T07:23:51;2.60;;;0.70;;
51840;SDS011;37888;53.246;6.658;2023-07-13T07:26:30;3.88;;;0.80;;
51840;SDS011;37888;53.246;6.658;2023-07-13T07:29:06;2.80;;;0.90;;
51840;SDS011;37888;53.246;6.658;2023-07-13T07:31:43;2.05;;;0.70;;
51840;SDS011;37888;53.246;6.658;2023-07-13T07:34:09;2.00;;;0.68;;
51840;SDS011;37888;53.246;6.658;2023-07-13T07:36:38;3.15;;;0.65;;
51840;SDS011;37888;53.246;6.658;2023-07-13T07:39:15;1.73;;;0.50;;
51840;SDS011;37888;53.246;6.658;2023-07-13T08:03:45;2.80;;;0.77;;
51840;SDS011;37888;53.246;6.658;2023-07-13T08:06:11;2.77;;;0.97;;
51840;SDS011;37888;53.246;6.658;2023-07-13T08:08:37;1.80;;;0.70;;
51840;SDS011;37888;53.246;6.658;2023-07-13T08:11:03;3.90;;;0.90;;
51840;SDS011;37888;53.246;6.658;2023-07-13T08:13:33;2.95;;;0.60;;
51840;SDS011;37888;53.246;6.658;2023-07-13T08:15:59;3.25;;;0.80;;
51840;SDS011;37888;53.246;6.658;2023-07-13T08:18:25;3.67;;;1.05;;
51840;SDS011;37888;53.246;6.658;2023-07-13T08:20:53;3.15;;;0.75;;
51840;SDS011;37888;53.246;6.658;2023-07-13T08:23:22;2.35;;;0.70;;
51840;SDS011;37888;53.246;6.658;2023-07-13T08:25:52;1.00;;;0.52;;
51840;SDS011;37888;53.246;6.658;2023-07-13T08:28:19;1.42;;;0.85;;
51840;SDS011;37888;53.246;6.658;2023-07-13T08:30:46;1.23;;;0.50;;
51840;SDS011;37888;53.246;6.658;2023-07-13T08:33:18;2.75;;;0.60;;
51840;SDS011;37888;53.246;6.658;2023-07-13T08:35:46;0.93;;;0.40;;
51840;SDS011;37888;53.246;6.658;2023-07-13T08:38:12;1.10;;;0.50;;
51840;SDS011;37888;53.246;6.658;2023-07-13T08:40:38;2.93;;;0.63;;
51840;SDS011;37888;53.246;6.658;2023-07-13T08:43:05;3.03;;;0.70;;
51840;SDS011;37888;53.246;6.658;2023-07-13T08:45:42;3.10;;;0.80;;
51840;SDS011;37888;53.246;6.658;2023-07-13T08:48:18;3.50;;;0.80;;
51840;SDS011;37888;53.246;6.658;2023-07-13T08:53:43;2.28;;;0.90;;
51840;SDS011;37888;53.246;6.658;2023-07-13T08:56:19;3.47;;;1.10;;
51840;SDS011;37888;53.246;6.658;2023-07-13T08:58:48;1.88;;;0.82;;
51840;SDS011;37888;53.246;6.658;2023-07-13T09:01:58;2.58;;;0.85;;
51840;SDS011;37888;53.246;6.658;2023-07-13T09:15:43;2.90;;;0.95;;
51840;SDS011;37888;53.246;6.658;2023-07-13T09:18:11;2.05;;;0.93;;
51840;SDS011;37888;53.246;6.658;2023-07-13T09:20:49;2.72;;;0.88;;
51840;SDS011;37888;53.246;6.658;2023-07-13T09:23:20;3.20;;;0.80;;
51840;SDS011;37888;53.246;6.658;2023-07-13T09:25:49;3.80;;;0.70;;
51840;SDS011;37888;53.246;6.658;2023-07-13T09:28:24;2.28;;;0.88;;
51840;SDS011;37888;53.246;6.658;2023-07-13T09:30:56;3.92;;;1.13;;
51840;SDS011;37888;53.246;6.658;2023-07-13T09:33:29;1.33;;;0.73;;
51840;SDS011;37888;53.246;6.658;2023-07-13T09:38:24;2.85;;;1.00;;
51840;SDS011;37888;53.246;6.658;2023-07-13T09:46:27;2.65;;;0.77;;
51840;SDS011;37888;53.246;6.658;2023-07-13T09:48:52;2.35;;;0.90;;
51840;SDS011;37888;53.246;6.658;2023-07-13T09:51:21;3.22;;;0.85;;
51840;SDS011;37888;53.246;6.658;2023-07-13T09:53:46;3.65;;;0.77;;
51840;SDS011;37888;53.246;6.658;2023-07-13T09:58:46;2.30;;;0.75;;
51840;SDS011;37888;53.246;6.658;2023-07-13T10:01:12;1.95;;;0.75;;
51840;SDS011;37888;53.246;6.658;2023-07-13T10:03:39;1.75;;;0.70;;
51840;SDS011;37888;53.246;6.658;2023-07-13T10:06:17;2.20;;;0.73;;
51840;SDS011;37888;53.246;6.658;2023-07-13T10:08:44;1.45;;;0.50;;
51840;SDS011;37888;53.246;6.658;2023-07-13T10:11:21;0.93;;;0.50;;
51840;SDS011;37888;53.246;6.658;2023-07-13T10:13:54;2.42;;;0.57;;
51840;SDS011;37888;53.246;6.658;2023-07-13T10:16:34;1.15;;;0.60;;
51840;SDS011;37888;53.246;6.658;2023-07-13T10:19:05;1.05;;;0.45;;
51840;SDS011;37888;53.246;6.658;2023-07-13T10:24:21;1.63;;;0.70;;
51840;SDS011;37888;53.246;6.658;2023-07-13T10:26:56;1.98;;;0.60;;
51840;SDS011;37888;53.246;6.658;2023-07-13T10:29:23;1.42;;;0.40;;
51840;SDS011;37888;53.246;6.658;2023-07-13T10:31:52;0.80;;;0.43;;
51840;SDS011;37888;53.246;6.658;2023-07-13T10:34:17;2.00;;;0.43;;
51840;SDS011;37888;53.246;6.658;2023-07-13T10:36:44;2.63;;;0.85;;
51840;SDS011;37888;53.246;6.658;2023-07-13T10:39:22;1.20;;;0.35;;
51840;SDS011;37888;53.246;6.658;2023-07-13T10:41:53;2.47;;;0.60;;
51840;SDS011;37888;53.246;6.658;2023-07-13T10:44:27;1.77;;;0.68;;
51840;SDS011;37888;53.246;6.658;2023-07-13T10:46:58;1.65;;;0.50;;
51840;SDS011;37888;53.246;6.658;2023-07-13T10:49:26;1.20;;;0.35;;
51840;SDS011;37888;53.246;6.658;2023-07-13T10:51:54;3.88;;;0.57;;
51840;SDS011;37888;53.246;6.658;2023-07-13T10:54:21;1.70;;;0.50;;
51840;SDS011;37888;53.246;6.658;2023-07-13T10:57:08;0.90;;;0.30;;
51840;SDS011;37888;53.246;6.658;2023-07-13T10:59:41;1.40;;;0.40;;
51840;SDS011;37888;53.246;6.658;2023-07-13T11:02:25;1.30;;;0.30;;
51840;SDS011;37888;53.246;6.658;2023-07-13T11:04:54;0.73;;;0.30;;
51840;SDS011;37888;53.246;6.658;2023-07-13T11:07:29;2.03;;;0.38;;
51840;SDS011;37888;53.246;6.658;2023-07-13T11:10:03;1.10;;;0.40;;
51840;SDS011;37888;53.246;6.658;2023-07-13T11:15:27;1.63;;;0.30;;
51840;SDS011;37888;53.246;6.658;2023-07-13T11:18:02;2.03;;;0.50;;
51840;SDS011;37888;53.246;6.658;2023-07-13T11:20:39;1.35;;;0.40;;
51840;SDS011;37888;53.246;6.658;2023-07-13T11:23:15;1.85;;;0.40;;
51840;SDS011;37888;53.246;6.658;2023-07-13T11:25:52;1.65;;;0.65;;
51840;SDS011;37888;53.246;6.658;2023-07-13T11:28:21;1.48;;;0.40;;
51840;SDS011;37888;53.246;6.658;2023-07-13T11:30:50;1.67;;;0.40;;
51840;SDS011;37888;53.246;6.658;2023-07-13T11:36:00;1.38;;;0.68;;
51840;SDS011;37888;53.246;6.658;2023-07-13T11:41:02;3.00;;;0.57;;
51840;SDS011;37888;53.246;6.658;2023-07-13T11:43:31;1.10;;;0.50;;
51840;SDS011;37888;53.246;6.658;2023-07-13T11:46:11;2.60;;;0.60;;
51840;SDS011;37888;53.246;6.658;2023-07-13T11:48:38;1.27;;;0.60;;
51840;SDS011;37888;53.246;6.658;2023-07-13T11:53:34;3.75;;;0.50;;
51840;SDS011;37888;53.246;6.658;2023-07-13T11:56:10;1.75;;;0.55;;
51840;SDS011;37888;53.246;6.658;2023-07-13T11:58:36;1.92;;;0.68;;
51840;SDS011;37888;53.246;6.658;2023-07-13T12:01:02;2.13;;;0.68;;
51840;SDS011;37888;53.246;6.658;2023-07-13T12:03:30;2.80;;;0.70;;
51840;SDS011;37888;53.246;6.658;2023-07-13T12:05:59;1.75;;;0.50;;
51840;SDS011;37888;53.246;6.658;2023-07-13T12:08:37;2.05;;;0.60;;
51840;SDS011;37888;53.246;6.658;2023-07-13T12:11:11;2.05;;;0.43;;
51840;SDS011;37888;53.246;6.658;2023-07-13T12:13:43;1.92;;;0.47;;
51840;SDS011;37888;53.246;6.658;2023-07-13T12:16:31;0.98;;;0.50;;
51840;SDS011;37888;53.246;6.658;2023-07-13T12:18:59;1.35;;;0.45;;
51840;SDS011;37888;53.246;6.658;2023-07-13T12:21:30;2.53;;;0.68;;
51840;SDS011;37888;53.246;6.658;2023-07-13T12:23:58;2.10;;;0.60;;
51840;SDS011;37888;53.246;6.658;2023-07-13T12:26:27;1.77;;;0.60;;
51840;SDS011;37888;53.246;6.658;2023-07-13T12:28:55;1.20;;;0.40;;
51840;SDS011;37888;53.246;6.658;2023-07-13T12:31:31;1.20;;;0.40;;
51840;SDS011;37888;53.246;6.658;2023-07-13T12:34:10;1.90;;;0.57;;
51840;SDS011;37888;53.246;6.658;2023-07-13T12:36:38;2.15;;;0.60;;
51840;SDS011;37888;53.246;6.658;2023-07-13T12:39:16;2.63;;;0.60;;
51840;SDS011;37888;53.246;6.658;2023-07-13T12:41:44;1.75;;;0.50;;
51840;SDS011;37888;53.246;6.658;2023-07-13T12:44:31;2.47;;;0.80;;
51840;SDS011;37888;53.246;6.658;2023-07-13T12:46:58;2.95;;;0.98;;
51840;SDS011;37888;53.246;6.658;2023-07-13T12:49:30;1.75;;;0.70;;
51840;SDS011;37888;53.246;6.658;2023-07-13T12:52:00;1.67;;;0.55;;
51840;SDS011;37888;53.246;6.658;2023-07-13T12:54:28;1.58;;;0.40;;
51840;SDS011;37888;53.246;6.658;2023-07-13T12:59:23;1.42;;;0.50;;
51840;SDS011;37888;53.246;6.658;2023-07-13T13:01:54;0.57;;;0.30;;
51840;SDS011;37888;53.246;6.658;2023-07-13T13:04:20;0.63;;;0.40;;
51840;SDS011;37888;53.246;6.658;2023-07-13T13:06:47;2.20;;;0.60;;
51840;SDS011;37888;53.246;6.658;2023-07-13T13:09:14;2.67;;;0.82;;
51840;SDS011;37888;53.246;6.658;2023-07-13T13:11:44;1.52;;;0.70;;
51840;SDS011;37888;53.246;6.658;2023-07-13T13:14:11;2.08;;;0.90;;
51840;SDS011;37888;53.246;6.658;2023-07-13T13:16:47;1.77;;;0.43;;
51840;SDS011;37888;53.246;6.658;2023-07-13T13:21:45;1.90;;;0.60;;
51840;SDS011;37888;53.246;6.658;2023-07-13T13:24:15;1.83;;;0.50;;
51840;SDS011;37888;53.246;6.658;2023-07-13T13:26:45;1.67;;;0.60;;
51840;SDS011;37888;53.246;6.658;2023-07-13T13:29:15;1.60;;;0.70;;
51840;SDS011;37888;53.246;6.658;2023-07-13T13:31:43;1.63;;;0.47;;
51840;SDS011;37888;53.246;6.658;2023-07-13T13:34:10;3.27;;;0.77;;
51840;SDS011;37888;53.246;6.658;2023-07-13T13:36:39;1.10;;;0.40;;
51840;SDS011;37888;53.246;6.658;2023-07-13T13:41:53;1.90;;;0.60;;
51840;SDS011;37888;53.246;6.658;2023-07-13T13:44:19;3.70;;;1.10;;
51840;SDS011;37888;53.246;6.658;2023-07-13T13:46:53;2.50;;;1.00;;
51840;SDS011;37888;53.246;6.658;2023-07-13T13:49:22;2.97;;;1.00;;
51840;SDS011;37888;53.246;6.658;2023-07-13T13:51:49;5.13;;;1.00;;
51840;SDS011;37888;53.246;6.658;2023-07-13T13:54:16;3.55;;;1.10;;
51840;SDS011;37888;53.246;6.658;2023-07-13T13:56:45;4.75;;;1.15;;
51840;SDS011;37888;53.246;6.658;2023-07-13T13:59:13;2.67;;;0.85;;
51840;SDS011;37888;53.246;6.658;2023-07-13T14:01:39;3.10;;;1.05;;
51840;SDS011;37888;53.246;6.658;2023-07-13T14:04:08;3.63;;;0.80;;
51840;SDS011;37888;53.246;6.658;2023-07-13T14:06:47;2.63;;;0.93;;
51840;SDS011;37888;53.246;6.658;2023-07-13T14:09:15;2.40;;;1.00;;
51840;SDS011;37888;53.246;6.658;2023-07-13T14:11:43;2.90;;;1.00;;
51840;SDS011;37888;53.246;6.658;2023-07-13T14:14:30;3.88;;;0.80;;
51840;SDS011;37888;53.246;6.658;2023-07-13T14:16:55;3.35;;;0.65;;
51840;SDS011;37888;53.246;6.658;2023-07-13T14:19:22;2.53;;;0.75;;
51840;SDS011;37888;53.246;6.658;2023-07-13T14:21:48;1.23;;;0.65;;
51840;SDS011;37888;53.246;6.658;2023-07-13T14:24:14;2.25;;;0.50;;
51840;SDS011;37888;53.246;6.658;2023-07-13T14:26:41;2.20;;;0.80;;
51840;SDS011;37888;53.246;6.658;2023-07-13T14:31:37;1.90;;;0.70;;
51840;SDS011;37888;53.246;6.658;2023-07-13T14:34:03;1.65;;;0.60;;
51840;SDS011;37888;53.246;6.658;2023-07-13T14:36:42;1.48;;;0.57;;
51840;SDS011;37888;53.246;6.658;2023-07-13T14:39:17;2.13;;;0.70;;
51840;SDS011;37888;53.246;6.658;2023-07-13T14:41:45;2.75;;;0.80;;
51840;SDS011;37888;53.246;6.658;2023-07-13T14:44:12;3.28;;;0.77;;
51840;SDS011;37888;53.246;6.658;2023-07-13T14:46:41;1.88;;;0.60;;
51840;SDS011;37888;53.246;6.658;2023-07-13T14:51:45;3.33;;;0.80;;
51840;SDS011;37888;53.246;6.658;2023-07-13T14:54:10;2.15;;;0.60;;
51840;SDS011;37888;53.246;6.658;2023-07-13T14:56:36;3.78;;;0.90;;
51840;SDS011;37888;53.246;6.658;2023-07-13T14:59:02;3.10;;;0.70;;
51840;SDS011;37888;53.246;6.658;2023-07-13T15:01:30;1.63;;;0.80;;
51840;SDS011;37888;53.246;6.658;2023-07-13T15:03:56;3.80;;;0.70;;
51840;SDS011;37888;53.246;6.658;2023-07-13T15:06:23;3.38;;;1.15;;
51840;SDS011;37888;53.246;6.658;2023-07-13T15:08:49;3.63;;;1.00;;
51840;SDS011;37888;53.246;6.658;2023-07-13T15:11:15;1.52;;;0.80;;
51840;SDS011;37888;53.246;6.658;2023-07-13T15:13:41;2.88;;;1.00;;
51840;SDS011;37888;53.246;6.658;2023-07-13T15:16:22;2.50;;;1.00;;
51840;SDS011;37888;53.246;6.658;2023-07-13T15:18:50;3.35;;;0.90;;
51840;SDS011;37888;53.246;6.658;2023-07-13T15:21:21;3.47;;;1.17;;
51840;SDS011;37888;53.246;6.658;2023-07-13T15:23:49;5.55;;;1.08;;
51840;SDS011;37888;53.246;6.658;2023-07-13T15:26:17;2.70;;;0.93;;
51840;SDS011;37888;53.246;6.658;2023-07-13T15:28:44;2.15;;;0.98;;
51840;SDS011;37888;53.246;6.658;2023-07-13T15:33:45;3.00;;;0.98;;
51840;SDS011;37888;53.246;6.658;2023-07-13T15:36:13;3.70;;;1.00;;
51840;SDS011;37888;53.246;6.658;2023-07-13T15:38:40;5.78;;;1.48;;
51840;SDS011;37888;53.246;6.658;2023-07-13T15:41:21;4.03;;;1.25;;
51840;SDS011;37888;53.246;6.658;2023-07-13T15:43:50;2.88;;;1.02;;
51840;SDS011;37888;53.246;6.658;2023-07-13T15:46:18;3.22;;;1.25;;
51840;SDS011;37888;53.246;6.658;2023-07-13T15:48:46;3.63;;;1.00;;
51840;SDS011;37888;53.246;6.658;2023-07-13T15:51:17;2.30;;;0.73;;
51840;SDS011;37888;53.246;6.658;2023-07-13T15:53:48;5.63;;;1.65;;
51840;SDS011;37888;53.246;6.658;2023-07-13T15:56:17;1.92;;;0.80;;
51840;SDS011;37888;53.246;6.658;2023-07-13T15:58:44;4.30;;;0.90;;
51840;SDS011;37888;53.246;6.658;2023-07-13T16:01:11;2.80;;;0.88;;
51840;SDS011;37888;53.246;6.658;2023-07-13T16:03:38;3.42;;;1.13;;
51840;SDS011;37888;53.246;6.658;2023-07-13T16:06:10;2.13;;;0.82;;
51840;SDS011;37888;53.246;6.658;2023-07-13T16:08:41;2.70;;;0.88;;
51840;SDS011;37888;53.246;6.658;2023-07-13T16:11:13;3.85;;;1.00;;
51840;SDS011;37888;53.246;6.658;2023-07-13T16:13:44;2.90;;;0.80;;
51840;SDS011;37888;53.246;6.658;2023-07-13T16:16:11;3.10;;;0.75;;
51840;SDS011;37888;53.246;6.658;2023-07-13T16:18:38;4.18;;;0.82;;
51840;SDS011;37888;53.246;6.658;2023-07-13T16:21:04;2.30;;;0.90;;
51840;SDS011;37888;53.246;6.658;2023-07-13T16:23:38;7.95;;;1.35;;
51840;SDS011;37888;53.246;6.658;2023-07-13T16:26:12;3.08;;;0.90;;
51840;SDS011;37888;53.246;6.658;2023-07-13T16:28:52;3.75;;;0.98;;
51840;SDS011;37888;53.246;6.658;2023-07-13T16:31:25;4.50;;;0.90;;
51840;SDS011;37888;53.246;6.658;2023-07-13T16:34:00;4.35;;;1.30;;
51840;SDS011;37888;53.246;6.658;2023-07-13T16:36:26;2.20;;;0.90;;